createdAt,value
2023-01-17T00:00:10.258Z,528.00
2023-01-17T00:01:10.156Z,525.00
2023-01-17T00:02:10.119Z,500.00
2023-01-17T00:03:10.095Z,511.00
2023-01-17T00:04:10.219Z,513.00
2023-01-17T00:05:10.034Z,516.00
2023-01-17T00:06:10.008Z,513.00
2023-01-17T00:07:09.969Z,506.00
2023-01-17T00:08:09.921Z,514.00
2023-01-17T00:09:09.885Z,521.00
2023-01-17T00:10:09.842Z,510.00
2023-01-17T00:11:09.825Z,501.00
2023-01-17T00:12:09.775Z,510.00
2023-01-17T00:13:09.738Z,516.00
2023-01-17T00:14:09.695Z,534.00
2023-01-17T00:15:09.665Z,532.00
2023-01-17T00:16:09.671Z,542.00
2023-01-17T00:17:09.605Z,547.00
2023-01-17T00:18:09.565Z,548.00
2023-01-17T00:19:09.535Z,545.00
2023-01-17T00:20:09.505Z,559.00
2023-01-17T00:21:09.461Z,558.00
2023-01-17T00:22:09.425Z,558.00
2023-01-17T00:23:09.401Z,560.00
2023-01-17T00:24:09.349Z,568.00
2023-01-17T00:25:09.328Z,566.00
2023-01-17T00:26:09.284Z,566.00
2023-01-17T00:27:09.235Z,563.00
2023-01-17T00:28:09.196Z,568.00
2023-01-17T00:29:09.159Z,564.00
2023-01-17T00:30:09.110Z,557.00
2023-01-17T00:31:09.169Z,555.00
2023-01-17T00:32:09.038Z,556.00
2023-01-17T00:33:09.000Z,546.00
2023-01-17T00:34:08.947Z,559.00
2023-01-17T00:35:08.918Z,540.00
2023-01-17T04:23:59.022Z,541.00
2023-01-17T04:24:58.980Z,556.00
2023-01-17T04:25:58.944Z,553.00
2023-01-17T04:26:58.905Z,557.00
2023-01-17T04:35:58.561Z,545.00
2023-01-17T04:36:58.509Z,547.00
2023-01-17T04:37:58.456Z,549.00
2023-01-17T04:38:58.408Z,545.00
2023-01-17T04:39:58.381Z,548.00
2023-01-17T04:40:58.337Z,551.00
2023-01-17T04:41:58.295Z,551.00
2023-01-17T04:42:58.332Z,555.00
2023-01-17T04:43:58.231Z,548.00
2023-01-17T04:44:58.170Z,546.00
2023-01-17T07:31:51.183Z,1190.00
2023-01-17T07:32:51.172Z,1212.00
2023-01-17T07:33:51.077Z,1140.00
2023-01-17T07:34:51.054Z,1158.00
2023-01-17T07:35:50.990Z,1160.00
2023-01-17T07:36:50.918Z,1147.00
2023-01-17T07:37:50.889Z,1115.00
2023-01-17T07:38:50.806Z,1125.00
2023-01-17T07:39:50.758Z,1123.00
2023-01-17T07:40:50.720Z,1118.00
2023-01-17T07:41:50.647Z,1102.00
2023-01-17T07:42:50.597Z,1073.00
2023-01-17T07:43:50.554Z,1086.00
2023-01-17T07:44:50.487Z,1076.00
2023-01-17T07:45:50.460Z,1074.00
2023-01-17T07:46:50.489Z,1091.00
2023-01-17T07:47:50.342Z,1104.00
2023-01-17T07:48:50.300Z,1106.00
2023-01-17T07:49:50.233Z,1094.00
2023-01-17T07:50:50.209Z,1116.00
2023-01-17T07:51:50.155Z,1076.00
2023-01-17T07:52:50.090Z,1066.00
2023-01-17T07:53:50.021Z,1057.00
2023-01-17T07:54:49.969Z,1040.00
2023-01-17T07:55:49.919Z,1036.00
2023-01-17T07:56:49.857Z,1052.00
2023-01-17T07:57:49.792Z,1081.00
2023-01-17T07:58:49.736Z,1087.00
2023-01-17T07:59:49.690Z,1108.00
2023-01-17T08:00:49.733Z,1135.00
2023-01-17T08:01:49.689Z,1140.00
2023-01-17T08:02:49.514Z,1153.00
2023-01-17T08:03:49.504Z,1132.00
2023-01-17T08:04:49.407Z,1157.00
2023-01-17T08:05:49.358Z,1172.00
2023-01-17T08:06:49.296Z,1159.00
2023-01-17T08:07:49.247Z,1172.00
2023-01-17T08:08:49.296Z,1178.00
2023-01-17T08:09:49.267Z,1171.00
2023-01-17T08:10:49.138Z,1182.00
2023-01-17T08:11:49.038Z,1177.00
2023-01-17T08:12:48.950Z,1181.00
2023-01-17T08:35:47.631Z,1218.00
2023-01-17T08:38:47.478Z,1226.00
2023-01-17T08:40:47.323Z,1211.00
2023-01-17T08:41:47.271Z,1228.00
2023-01-17T08:42:47.235Z,1246.00
2023-01-17T08:43:47.162Z,1255.00
2023-01-17T08:44:47.111Z,1244.00
2023-01-17T08:45:47.116Z,1214.00
2023-01-17T08:46:47.008Z,1186.00
2023-01-17T08:47:46.948Z,1185.00
2023-01-17T08:48:46.886Z,1195.00
2023-01-17T08:49:46.839Z,1198.00
2023-01-17T08:50:46.788Z,1190.00
2023-01-17T08:51:46.721Z,1201.00
2023-01-17T08:52:46.665Z,1188.00
2023-01-17T08:53:46.621Z,1173.00
2023-01-17T08:54:46.569Z,1166.00
2023-01-17T08:55:46.508Z,1184.00
2023-01-17T08:56:46.431Z,1171.00
2023-01-17T08:57:46.948Z,1177.00
2023-01-17T08:58:46.326Z,1196.00
2023-01-17T08:59:46.276Z,1225.00
2023-01-17T09:00:46.366Z,1233.00
2023-01-17T09:01:46.340Z,1227.00
2023-01-17T09:02:46.100Z,1210.00
2023-01-17T09:03:46.045Z,1205.00
2023-01-17T09:04:45.988Z,1195.00
2023-01-17T09:05:45.931Z,1188.00
2023-01-17T09:06:45.891Z,1185.00
2023-01-17T09:07:45.825Z,1171.00
2023-01-17T09:08:46.470Z,1152.00
2023-01-17T09:09:45.692Z,1186.00
2023-01-17T09:10:45.643Z,1166.00
2023-01-17T09:11:45.596Z,1137.00
2023-01-17T09:12:45.536Z,1148.00
2023-01-17T09:13:45.473Z,1110.00
2023-01-17T09:14:45.397Z,1127.00
2023-01-17T09:15:45.328Z,1104.00
2023-01-17T09:16:45.345Z,1102.00
2023-01-17T09:17:45.218Z,1093.00
2023-01-17T09:18:45.165Z,1091.00
2023-01-17T09:20:45.089Z,1097.00
2023-01-17T09:21:44.998Z,1079.00
2023-01-17T09:22:46.133Z,1073.00
2023-01-17T09:23:44.897Z,1052.00
2023-01-17T09:24:44.813Z,1032.00
2023-01-17T09:25:44.823Z,1044.00
2023-01-17T09:26:44.803Z,1053.00
2023-01-17T09:27:44.801Z,1050.00
2023-01-17T09:28:44.804Z,1018.00
2023-01-17T09:29:44.809Z,1036.00
2023-01-17T09:30:44.843Z,1020.00
2023-01-17T09:31:44.826Z,997.00
2023-01-17T09:32:44.816Z,986.00
2023-01-17T09:33:44.789Z,987.00
2023-01-17T09:34:44.705Z,992.00
2023-01-17T09:35:44.639Z,1000.00
2023-01-17T09:36:44.662Z,1007.00
2023-01-17T09:37:44.533Z,996.00
2023-01-17T09:38:44.481Z,997.00
2023-01-17T09:39:44.420Z,984.00
2023-01-17T09:40:44.351Z,987.00
2023-01-17T09:41:44.351Z,981.00
2023-01-17T09:42:44.296Z,971.00
2023-01-17T09:43:44.185Z,977.00
2023-01-17T09:44:44.122Z,981.00
2023-01-17T09:45:44.094Z,973.00
2023-01-17T09:46:44.018Z,972.00
2023-01-17T09:47:43.981Z,987.00
2023-01-17T09:48:43.933Z,1016.00
2023-01-17T09:49:43.852Z,1023.00
2023-01-17T09:50:43.850Z,1042.00
2023-01-17T09:51:43.734Z,1032.00
2023-01-17T09:52:43.690Z,1039.00
2023-01-17T09:53:43.633Z,1024.00
2023-01-17T09:54:43.573Z,1014.00
2023-01-17T09:55:43.531Z,1030.00
2023-01-17T09:56:43.543Z,1037.00
2023-01-17T09:57:43.409Z,1033.00
2023-01-17T09:58:43.347Z,930.00
2023-01-17T09:59:45.679Z,723.00
2023-01-17T10:00:43.337Z,661.00
2023-01-17T10:01:43.484Z,586.00
2023-01-17T10:02:43.368Z,627.00
2023-01-17T10:03:43.264Z,545.00
2023-01-17T10:04:43.161Z,513.00
2023-01-17T10:05:43.190Z,500.00
2023-01-17T10:06:43.196Z,445.00
2023-01-17T10:07:43.192Z,465.00
2023-01-17T10:08:43.202Z,494.00
2023-01-17T10:09:43.214Z,527.00
2023-01-17T10:10:43.274Z,526.00
2023-01-17T10:11:43.249Z,565.00
2023-01-17T10:12:43.272Z,499.00
2023-01-17T10:13:43.284Z,482.00
2023-01-17T10:14:43.301Z,498.00
2023-01-17T10:15:43.310Z,543.00
2023-01-17T10:16:43.345Z,525.00
2023-01-17T10:17:43.348Z,500.00
2023-01-17T10:18:43.350Z,509.00
2023-01-17T10:19:43.368Z,530.00
2023-01-17T10:20:43.385Z,520.00
2023-01-17T10:21:43.410Z,482.00
2023-01-17T10:22:43.411Z,492.00
2023-01-17T10:23:43.429Z,503.00
2023-01-17T10:24:43.448Z,526.00
2023-01-17T10:25:43.444Z,590.00
2023-01-17T10:26:43.405Z,592.00
2023-01-17T10:27:43.352Z,595.00
2023-01-17T10:28:43.316Z,574.00
2023-01-17T10:29:43.287Z,571.00
2023-01-17T10:30:43.313Z,538.00
2023-01-17T10:31:43.339Z,563.00
2023-01-17T10:32:43.115Z,579.00
2023-01-17T10:33:43.070Z,587.00
2023-01-17T10:34:43.080Z,586.00
2023-01-17T10:35:42.952Z,578.00
2023-01-17T10:36:42.904Z,558.00
2023-01-17T10:37:42.859Z,492.00
2023-01-17T10:38:42.874Z,532.00
2023-01-17T10:39:42.756Z,525.00
2023-01-17T10:40:42.718Z,458.00
2023-01-17T10:41:42.639Z,585.00
2023-01-17T10:42:42.594Z,655.00
2023-01-17T10:43:42.557Z,827.00
2023-01-17T10:44:42.530Z,924.00
2023-01-17T10:45:42.484Z,996.00
2023-01-17T10:46:42.411Z,1057.00
2023-01-17T10:47:42.391Z,1103.00
2023-01-17T10:48:42.306Z,1196.00
2023-01-17T10:49:42.240Z,1178.00
2023-01-17T10:50:42.194Z,1195.00
2023-01-17T10:51:42.159Z,1189.00
2023-01-17T10:52:42.126Z,1269.00
2023-01-17T10:53:42.083Z,1298.00
2023-01-17T10:54:42.046Z,1254.00
2023-01-17T10:55:42.013Z,1286.00
2023-01-17T10:56:41.969Z,1308.00
2023-01-17T10:57:41.924Z,1331.00
2023-01-17T10:58:41.897Z,1355.00
2023-01-17T10:59:41.817Z,1384.00
2023-01-17T11:00:41.793Z,1339.00
2023-01-17T11:01:41.840Z,1259.00
2023-01-17T11:02:41.705Z,1349.00
2023-01-17T11:03:41.625Z,1390.00
2023-01-17T11:04:41.570Z,1378.00
2023-01-17T11:05:41.514Z,1363.00
2023-01-17T11:06:57.335Z,1375.00
2023-01-17T11:07:42.408Z,1377.00
2023-01-17T11:08:41.385Z,1389.00
2023-01-17T11:09:41.304Z,1410.00
2023-01-17T11:10:41.255Z,1464.00
2023-01-17T11:11:41.203Z,1470.00
2023-01-17T11:12:41.137Z,1488.00
2023-01-17T11:13:41.089Z,1502.00
2023-01-17T11:14:41.033Z,1527.00
2023-01-17T11:15:41.014Z,1503.00
2023-01-17T11:16:40.920Z,1560.00
2023-01-17T11:17:40.871Z,1561.00
2023-01-17T11:18:40.835Z,1588.00
2023-01-17T11:19:40.771Z,1599.00
2023-01-17T11:20:40.707Z,1597.00
2023-01-17T11:21:40.686Z,1582.00
2023-01-17T11:22:40.608Z,1608.00
2023-01-17T11:23:40.552Z,1631.00
2023-01-17T11:24:40.483Z,1614.00
2023-01-17T11:25:40.424Z,1621.00
2023-01-17T11:26:40.372Z,1619.00
2023-01-17T11:27:40.343Z,1644.00
2023-01-17T11:28:40.267Z,1652.00
2023-01-17T11:29:40.208Z,1651.00
2023-01-17T11:30:40.173Z,1656.00
2023-01-17T11:31:40.099Z,1652.00
2023-01-17T11:32:40.031Z,1630.00
2023-01-17T11:33:39.971Z,1543.00
2023-01-17T11:34:39.908Z,1606.00
2023-01-17T11:35:39.864Z,1604.00
2023-01-17T11:36:39.798Z,1646.00
2023-01-17T11:37:39.727Z,1626.00
2023-01-17T11:38:39.691Z,1625.00
2023-01-17T11:39:39.610Z,1677.00
2023-01-17T11:40:39.549Z,1682.00
2023-01-17T11:41:39.496Z,1714.00
2023-01-17T11:42:39.449Z,1726.00
2023-01-17T11:43:39.404Z,1750.00
2023-01-17T11:44:39.325Z,1747.00
2023-01-17T11:45:39.261Z,1767.00
2023-01-17T11:46:39.413Z,1791.00
2023-01-17T11:47:39.145Z,1787.00
2023-01-17T11:48:39.097Z,1787.00
2023-01-17T11:49:39.048Z,1789.00
2023-01-17T11:50:39.069Z,1795.00
2023-01-17T11:51:38.946Z,1787.00
2023-01-17T13:28:33.730Z,1439.00
2023-01-17T13:29:33.669Z,1437.00
2023-01-17T13:30:33.612Z,1421.00
2023-01-17T13:31:33.585Z,1434.00
2023-01-17T13:32:33.498Z,1438.00
2023-01-17T13:33:33.444Z,1432.00
2023-01-17T13:34:33.388Z,1444.00
2023-01-17T13:35:33.349Z,1429.00
2023-01-17T13:36:33.275Z,1374.00
2023-01-17T13:37:33.231Z,1377.00
2023-01-17T13:38:33.168Z,1363.00
2023-01-17T13:39:33.143Z,1400.00
2023-01-17T13:40:33.069Z,1420.00
2023-01-17T13:41:33.015Z,1407.00
2023-01-17T13:42:32.970Z,1403.00
2023-01-17T13:43:32.921Z,1390.00
2023-01-17T13:44:32.859Z,1360.00
2023-01-17T13:45:32.860Z,1355.00
2023-01-17T13:46:32.749Z,1356.00
2023-01-17T13:47:32.688Z,1360.00
2023-01-17T13:48:32.633Z,1372.00
2023-01-17T13:49:32.569Z,1372.00
2023-01-17T13:50:32.510Z,1369.00
2023-01-17T13:51:32.460Z,1372.00
2023-01-17T13:52:33.597Z,1376.00
2023-01-17T13:53:32.340Z,1375.00
2023-01-17T13:54:32.284Z,1370.00
2023-01-17T13:55:32.238Z,1372.00
2023-01-17T13:56:32.178Z,1368.00
2023-01-17T13:57:32.134Z,1384.00
2023-01-17T13:58:32.060Z,1351.00
2023-01-17T13:59:32.005Z,1355.00
2023-01-17T14:00:31.950Z,1358.00
2023-01-17T14:01:32.000Z,1356.00
2023-01-17T14:02:31.832Z,1361.00
2023-01-17T14:03:31.781Z,1370.00
2023-01-17T14:04:31.741Z,1342.00
2023-01-17T14:05:31.663Z,1332.00
2023-01-17T14:06:31.607Z,1329.00
2023-01-17T14:07:31.555Z,1327.00
2023-01-17T14:08:31.507Z,1325.00
2023-01-17T14:09:31.450Z,1341.00
2023-01-17T14:10:31.388Z,1295.00
2023-01-17T14:11:31.361Z,1277.00
2023-01-17T14:12:31.309Z,1318.00
2023-01-17T14:13:31.245Z,1320.00
2023-01-17T14:14:31.179Z,1286.00
2023-01-17T14:15:31.129Z,1299.00
2023-01-17T14:16:31.154Z,1301.00
2023-01-17T14:17:31.026Z,1316.00
2023-01-17T14:18:30.961Z,1315.00
2023-01-17T14:19:30.917Z,1293.00
2023-01-17T14:20:30.853Z,1269.00
2023-01-17T14:21:30.811Z,1297.00
2023-01-17T14:22:30.754Z,1294.00
2023-01-17T14:23:30.685Z,1282.00
2023-01-17T14:24:30.627Z,1282.00
2023-01-17T14:25:30.581Z,1285.00
2023-01-17T14:26:30.521Z,1274.00
2023-01-17T14:27:30.481Z,1284.00
2023-01-17T14:28:30.430Z,1279.00
2023-01-17T14:29:30.372Z,1267.00
2023-01-17T14:30:30.319Z,1245.00
2023-01-17T14:31:30.268Z,1222.00
2023-01-17T14:32:30.206Z,1258.00
2023-01-17T14:33:30.162Z,1242.00
2023-01-17T14:34:30.087Z,1251.00
2023-01-17T14:35:30.049Z,1221.00
2023-01-17T14:36:29.984Z,1224.00
2023-01-17T14:37:29.939Z,1235.00
2023-01-17T14:38:29.897Z,1220.00
2023-01-17T14:39:29.832Z,1217.00
2023-01-17T14:40:29.785Z,1247.00
2023-01-17T14:41:29.722Z,1229.00
2023-01-17T14:42:29.666Z,1194.00
2023-01-17T14:43:29.612Z,1240.00
2023-01-17T14:44:29.563Z,1231.00
2023-01-17T14:45:29.530Z,1233.00
2023-01-17T14:46:29.442Z,1250.00
2023-01-17T14:47:29.401Z,1249.00
2023-01-17T14:48:29.333Z,1251.00
2023-01-17T14:49:29.281Z,1216.00
2023-01-17T14:50:29.237Z,1248.00
2023-01-17T14:51:29.169Z,1166.00
2023-01-17T14:52:29.120Z,1213.00
2023-01-17T14:53:29.074Z,1178.00
2023-01-17T14:54:29.010Z,1179.00
2023-01-17T14:55:28.947Z,1182.00
2023-01-17T14:56:28.921Z,1195.00
2023-01-17T14:57:28.844Z,1199.00
2023-01-17T14:58:28.816Z,1185.00
2023-01-17T14:59:28.739Z,1194.00
2023-01-17T15:00:28.691Z,1196.00
2023-01-17T15:01:28.735Z,1164.00
2023-01-17T15:02:28.850Z,1181.00
2023-01-17T15:03:28.616Z,1164.00
2023-01-17T15:04:28.449Z,1211.00
2023-01-17T15:05:28.407Z,1159.00
2023-01-17T15:06:28.340Z,1178.00
2023-01-17T15:07:28.293Z,1178.00
2023-01-17T15:08:28.266Z,1218.00
2023-01-17T15:09:28.204Z,1180.00
2023-01-17T15:10:28.131Z,1180.00
2023-01-17T15:11:28.095Z,1179.00
2023-01-17T15:12:28.029Z,1179.00
2023-01-17T15:13:43.142Z,1163.00
2023-01-17T15:14:28.920Z,1164.00
2023-01-17T15:15:27.866Z,1167.00
2023-01-17T15:16:27.874Z,1164.00
2023-01-17T15:17:27.786Z,1187.00
2023-01-17T15:18:27.770Z,1186.00
2023-01-17T15:19:27.656Z,1203.00
2023-01-17T15:20:27.614Z,1188.00
2023-01-17T15:21:27.575Z,1191.00
2023-01-17T15:22:27.515Z,1193.00
2023-01-17T15:23:27.480Z,1194.00
2023-01-17T15:24:27.411Z,1185.00
2023-01-17T15:25:27.393Z,1174.00
2023-01-17T15:26:27.317Z,1151.00
2023-01-17T15:27:27.263Z,1146.00
2023-01-17T15:28:27.217Z,1142.00
2023-01-17T15:29:27.156Z,1187.00
2023-01-17T15:30:27.139Z,1176.00
2023-01-17T15:31:27.082Z,1190.00
2023-01-17T15:32:27.015Z,1185.00
2023-01-17T15:33:26.948Z,1194.00
2023-01-17T15:34:26.903Z,1189.00
2023-01-17T15:35:26.842Z,1171.00
2023-01-17T15:36:26.790Z,1149.00
2023-01-17T15:37:26.751Z,1149.00
2023-01-17T15:38:26.701Z,1160.00
2023-01-17T15:39:26.625Z,1177.00
2023-01-17T15:40:26.585Z,1160.00
2023-01-17T15:41:26.521Z,1152.00
2023-01-17T15:42:26.486Z,1149.00
2023-01-17T15:43:26.423Z,1151.00
2023-01-17T15:44:31.146Z,1175.00
2023-01-17T15:45:27.366Z,1153.00
2023-01-17T15:46:26.324Z,1147.00
2023-01-17T15:47:26.248Z,1097.00
2023-01-17T15:48:26.173Z,1098.00
2023-01-17T15:49:26.127Z,1136.00
2023-01-17T15:50:26.071Z,1102.00
2023-01-17T15:51:26.022Z,1126.00
2023-01-17T15:52:25.977Z,1154.00
2023-01-17T15:53:25.906Z,1130.00
2023-01-17T15:54:25.876Z,1123.00
2023-01-17T15:55:25.838Z,1091.00
2023-01-17T15:56:25.738Z,1102.00
2023-01-17T15:57:25.694Z,1136.00
2023-01-17T15:58:25.625Z,1117.00
2023-01-17T15:59:25.571Z,1136.00
2023-01-17T16:00:25.519Z,1147.00
2023-01-17T16:01:25.583Z,1153.00
2023-01-17T16:02:25.432Z,1138.00
2023-01-17T16:03:25.369Z,1138.00
2023-01-17T16:04:25.295Z,1139.00
2023-01-17T16:05:25.228Z,1106.00
2023-01-17T16:06:25.190Z,1120.00
2023-01-17T16:07:25.127Z,1142.00
2023-01-17T16:08:25.088Z,1154.00
2023-01-17T16:09:25.032Z,1120.00
2023-01-17T16:10:24.962Z,1134.00
2023-01-17T16:11:24.932Z,1127.00
2023-01-17T16:12:24.867Z,1129.00
2023-01-17T16:13:24.828Z,1128.00
2023-01-17T16:14:24.765Z,1134.00
2023-01-17T16:15:24.705Z,1096.00
2023-01-17T16:16:24.829Z,1122.00
2023-01-17T16:17:24.619Z,1115.00
2023-01-17T16:18:24.566Z,1115.00
2023-01-17T16:19:24.519Z,1112.00
2023-01-17T16:20:24.470Z,1085.00
2023-01-17T16:21:24.432Z,1033.00
2023-01-17T16:22:24.376Z,1095.00
2023-01-17T16:23:24.324Z,1104.00
2023-01-17T16:24:24.268Z,1085.00
2023-01-17T16:25:24.212Z,1084.00
2023-01-17T16:26:24.211Z,1070.00
2023-01-17T16:27:24.107Z,1109.00
2023-01-17T16:28:24.061Z,1098.00
2023-01-17T16:29:24.004Z,1078.00
2023-01-17T16:30:23.951Z,1069.00
2023-01-17T16:31:23.943Z,1095.00
2023-01-17T16:32:23.845Z,1097.00
2023-01-17T16:33:23.791Z,1128.00
2023-01-17T16:34:23.747Z,1085.00
2023-01-17T16:35:23.696Z,1104.00
2023-01-17T16:36:23.636Z,1122.00
2023-01-17T16:37:23.579Z,1108.00
2023-01-17T16:38:23.566Z,1096.00
2023-01-17T16:39:23.488Z,1105.00
2023-01-17T16:40:23.481Z,1093.00
2023-01-17T16:41:23.396Z,1093.00
2023-01-17T16:42:23.344Z,1078.00
2023-01-17T16:43:23.278Z,1080.00
2023-01-17T16:44:23.314Z,1050.00
2023-01-17T16:45:23.189Z,1086.00
2023-01-17T16:46:23.182Z,1082.00
2023-01-17T16:47:23.086Z,1060.00
2023-01-17T16:48:23.010Z,1082.00
2023-01-17T16:49:22.982Z,1063.00
2023-01-17T16:50:22.916Z,1061.00
2023-01-17T16:51:22.857Z,1046.00
2023-01-17T16:52:22.812Z,1064.00
2023-01-17T16:53:24.727Z,1079.00
2023-01-17T16:54:22.725Z,1064.00
2023-01-17T16:55:22.676Z,1062.00
2023-01-17T16:56:22.619Z,1090.00
2023-01-17T16:57:22.585Z,1084.00
2023-01-17T16:58:22.517Z,1097.00
2023-01-17T16:59:22.486Z,1085.00
2023-01-17T17:00:22.439Z,1074.00
2023-01-17T17:01:22.593Z,1064.00
2023-01-17T17:02:22.369Z,1037.00
2023-01-17T17:03:22.293Z,1079.00
2023-01-17T17:04:22.255Z,1001.00
2023-01-17T17:05:22.192Z,1004.00
2023-01-17T17:06:22.164Z,1038.00
2023-01-17T17:07:22.126Z,1028.00
2023-01-17T17:08:22.064Z,1051.00
2023-01-17T17:09:22.010Z,1012.00
2023-01-17T17:10:22.001Z,1027.00
2023-01-17T17:11:21.969Z,1059.00
2023-01-17T17:12:21.993Z,1054.00
2023-01-17T17:13:21.995Z,1020.00
2023-01-17T17:14:22.036Z,1013.00
2023-01-17T17:15:22.038Z,1040.00
2023-01-17T17:16:22.072Z,1044.00
2023-01-17T17:17:22.078Z,1023.00
2023-01-17T17:18:22.085Z,1015.00
2023-01-17T17:19:22.080Z,1001.00
2023-01-17T17:20:23.955Z,1036.00
2023-01-17T17:21:22.036Z,1027.00
2023-01-17T17:22:21.982Z,973.00
2023-01-17T17:23:21.968Z,1057.00
2023-01-17T17:24:21.907Z,978.00
2023-01-17T17:25:21.853Z,988.00
2023-01-17T17:26:21.811Z,993.00
2023-01-17T17:27:21.747Z,998.00
2023-01-17T17:28:21.713Z,993.00
2023-01-17T17:29:21.663Z,963.00
2023-01-17T17:30:21.626Z,990.00
2023-01-17T17:31:21.644Z,1022.00
2023-01-17T17:32:21.566Z,965.00
2023-01-17T17:33:21.481Z,1004.00
2023-01-17T17:34:21.445Z,1028.00
2023-01-17T17:35:21.386Z,979.00
2023-01-17T17:36:21.354Z,983.00
2023-01-17T17:37:21.333Z,1005.00
2023-01-17T17:38:21.283Z,986.00
2023-01-17T17:39:21.244Z,996.00
2023-01-17T17:40:21.234Z,1021.00
2023-01-17T17:41:21.158Z,971.00
2023-01-17T17:42:21.125Z,981.00
2023-01-17T17:43:21.091Z,1012.00
2023-01-17T17:44:21.067Z,980.00
2023-01-17T17:45:21.021Z,964.00
2023-01-17T17:46:21.074Z,995.00
2023-01-17T17:47:20.929Z,973.00
2023-01-17T17:48:20.900Z,998.00
2023-01-17T17:49:20.857Z,981.00
2023-01-17T17:50:20.823Z,947.00
2023-01-17T17:51:20.764Z,948.00
2023-01-17T17:52:20.724Z,965.00
2023-01-17T17:53:20.716Z,970.00
2023-01-17T17:54:20.644Z,962.00
2023-01-17T17:55:20.594Z,945.00
2023-01-17T17:56:20.564Z,1004.00
2023-01-17T17:57:20.540Z,1019.00
2023-01-17T17:58:20.505Z,963.00
2023-01-17T17:59:20.449Z,936.00
2023-01-17T18:00:20.410Z,956.00
2023-01-17T18:01:20.465Z,989.00
2023-01-17T18:02:20.333Z,980.00
2023-01-17T18:03:20.268Z,973.00
2023-01-17T18:04:20.232Z,947.00
2023-01-17T18:05:20.187Z,918.00
2023-01-17T18:06:20.171Z,937.00
2023-01-17T18:07:20.122Z,920.00
2023-01-17T18:08:20.075Z,907.00
2023-01-17T18:09:20.074Z,915.00
2023-01-17T18:10:19.973Z,928.00
2023-01-17T18:11:19.944Z,920.00
2023-01-17T18:12:20.832Z,956.00
2023-01-17T18:13:19.869Z,960.00
2023-01-17T18:14:19.856Z,931.00
2023-01-17T18:15:19.804Z,948.00
2023-01-17T18:16:19.834Z,936.00
2023-01-17T18:17:19.702Z,926.00
2023-01-17T18:18:19.678Z,928.00
2023-01-17T18:19:19.635Z,944.00
2023-01-17T18:20:19.586Z,932.00
2023-01-17T18:21:19.551Z,938.00
2023-01-17T18:22:19.514Z,911.00
2023-01-17T18:23:19.449Z,949.00
2023-01-17T18:24:19.415Z,966.00
2023-01-17T18:25:19.419Z,960.00
2023-01-17T18:26:19.354Z,912.00
2023-01-17T18:27:19.285Z,918.00
2023-01-17T18:28:19.278Z,923.00
2023-01-17T18:29:19.221Z,940.00
2023-01-17T18:30:19.175Z,962.00
2023-01-17T18:31:19.202Z,933.00
2023-01-17T18:32:19.110Z,957.00
2023-01-17T18:33:19.062Z,953.00
2023-01-17T18:34:19.043Z,949.00
2023-01-17T18:35:18.982Z,960.00
2023-01-17T18:36:18.951Z,946.00
2023-01-17T23:27:15.986Z,887.00
2023-01-17T23:28:15.996Z,904.00
2023-01-17T23:29:16.017Z,903.00
2023-01-17T23:30:16.076Z,874.00
2023-01-17T23:31:16.098Z,876.00
2023-01-17T23:32:16.056Z,886.00
2023-01-17T23:33:16.107Z,907.00
2023-01-17T23:34:16.076Z,902.00
2023-01-17T23:35:16.095Z,883.00
2023-01-17T23:36:16.098Z,837.00
2023-01-17T23:37:16.111Z,855.00
2023-01-17T23:38:16.149Z,865.00
2023-01-17T23:39:16.134Z,888.00
2023-01-17T23:40:16.172Z,877.00
2023-01-17T23:41:16.173Z,838.00
2023-01-17T23:42:16.211Z,869.00
2023-01-17T23:43:16.176Z,844.00
2023-01-17T23:44:16.185Z,826.00
2023-01-17T23:45:16.194Z,809.00
2023-01-17T23:46:16.209Z,822.00
2023-01-17T23:47:16.220Z,780.00
2023-01-17T23:48:16.224Z,797.00
2023-01-17T23:49:16.220Z,811.00
2023-01-17T23:50:16.226Z,831.00
2023-01-17T23:51:16.250Z,837.00
2023-01-17T23:52:16.263Z,830.00
2023-01-17T23:53:16.270Z,821.00
2023-01-17T23:54:16.278Z,810.00
2023-01-17T23:55:16.285Z,838.00
2023-01-17T23:56:16.302Z,810.00
2023-01-17T23:57:16.305Z,783.00
2023-01-17T23:58:16.336Z,818.00
2023-01-17T23:59:16.354Z,804.00
